createdAt,value
2023-05-05T00:00:42.812Z,85.40
2023-05-05T00:01:42.837Z,86.78
2023-05-05T00:02:42.968Z,85.98
2023-05-05T00:03:42.996Z,84.18
2023-05-05T00:04:42.862Z,84.77
2023-05-05T00:05:42.929Z,82.81
2023-05-05T00:06:42.920Z,85.29
2023-05-05T00:07:42.948Z,83.39
2023-05-05T00:08:43.011Z,85.03
2023-05-05T00:09:43.026Z,85.35
2023-05-05T00:10:43.095Z,84.67
2023-05-05T00:11:43.162Z,86.71
2023-05-05T00:12:43.217Z,85.57
2023-05-05T00:13:43.214Z,86.94
2023-05-05T00:14:43.254Z,84.62
2023-05-05T00:15:43.284Z,86.11
2023-05-05T00:16:43.368Z,84.99
2023-05-05T00:17:43.401Z,85.40
2023-05-05T00:18:43.401Z,85.64
2023-05-05T00:19:43.442Z,83.67
2023-05-05T00:20:43.513Z,88.07
2023-05-05T00:21:43.512Z,85.80
2023-05-05T00:22:43.526Z,85.39
2023-05-05T00:23:43.552Z,88.11
2023-05-05T00:24:43.591Z,88.49
2023-05-05T00:25:43.686Z,86.76
2023-05-05T00:26:43.654Z,83.79
2023-05-05T00:27:43.712Z,83.68
2023-05-05T00:28:43.765Z,83.88
2023-05-05T00:29:43.778Z,84.80
2023-05-05T00:30:43.831Z,87.28
2023-05-05T00:31:43.842Z,88.40
2023-05-05T00:32:43.832Z,86.20
2023-05-05T00:33:43.833Z,85.77
2023-05-05T00:34:43.852Z,86.51
2023-05-05T00:35:43.877Z,86.93
2023-05-05T00:36:43.888Z,85.85
2023-05-05T00:37:43.907Z,87.14
2023-05-05T00:38:43.919Z,86.67
2023-05-05T00:39:43.953Z,86.93
2023-05-05T00:40:43.970Z,83.81
2023-05-05T00:41:44.000Z,87.24
2023-05-05T00:42:43.991Z,85.33
2023-05-05T00:43:43.978Z,86.01
2023-05-05T00:44:44.006Z,86.06
2023-05-05T00:45:44.046Z,86.38
2023-05-05T00:46:44.081Z,86.59
2023-05-05T00:47:44.120Z,85.43
2023-05-05T00:48:44.064Z,83.37
2023-05-05T00:49:44.078Z,87.79
2023-05-05T00:50:44.069Z,88.85
2023-05-05T00:51:44.082Z,86.57
2023-05-05T00:52:44.088Z,85.32
2023-05-05T00:53:44.105Z,86.62
2023-05-05T00:54:44.074Z,84.81
2023-05-05T00:55:44.096Z,84.56
2023-05-05T00:56:44.081Z,87.29
2023-05-05T00:57:44.076Z,84.78
2023-05-05T00:58:44.078Z,83.48
2023-05-05T00:59:44.084Z,85.14
2023-05-05T01:00:44.068Z,84.47
2023-05-05T01:01:44.078Z,84.25
2023-05-05T01:02:44.157Z,86.07
2023-05-05T01:03:44.169Z,88.53
2023-05-05T01:04:44.091Z,84.40
2023-05-05T01:05:44.111Z,86.17
2023-05-05T01:06:44.083Z,85.62
2023-05-05T01:07:44.112Z,85.23
2023-05-05T01:08:44.097Z,88.16
2023-05-05T01:09:44.102Z,86.89
2023-05-05T01:10:44.093Z,87.12
2023-05-05T01:11:44.083Z,89.01
2023-05-05T01:12:44.120Z,86.74
2023-05-05T01:13:44.089Z,85.10
2023-05-05T01:14:44.102Z,88.98
2023-05-05T01:15:44.081Z,88.28
2023-05-05T01:16:44.135Z,85.82
2023-05-05T01:17:44.133Z,86.24
2023-05-05T01:18:44.087Z,87.34
2023-05-05T01:19:44.100Z,86.89
2023-05-05T01:20:44.094Z,86.83
2023-05-05T01:21:44.086Z,82.49
2023-05-05T01:22:44.077Z,85.12
2023-05-05T01:23:44.076Z,86.80
2023-05-05T01:24:44.078Z,83.68
2023-05-05T01:25:44.085Z,85.38
2023-05-05T01:26:44.133Z,85.45
2023-05-05T01:27:44.127Z,83.11
2023-05-05T01:28:44.093Z,85.43
2023-05-05T01:29:44.116Z,88.70
2023-05-05T01:30:44.079Z,82.66
2023-05-05T01:31:44.166Z,84.52
2023-05-05T01:32:44.158Z,82.39
2023-05-05T01:33:44.080Z,84.29
2023-05-05T01:34:44.084Z,88.47
2023-05-05T01:35:44.104Z,82.77
2023-05-05T01:36:44.108Z,82.68
2023-05-05T01:37:44.092Z,84.99
2023-05-05T01:38:44.084Z,88.46
2023-05-05T01:39:44.097Z,86.44
2023-05-05T01:40:44.121Z,88.41
2023-05-05T01:41:44.108Z,86.11
2023-05-05T01:42:44.092Z,85.54
2023-05-05T01:43:44.121Z,86.65
2023-05-05T01:44:44.088Z,87.88
2023-05-05T01:45:44.115Z,84.04
2023-05-05T01:46:44.131Z,87.29
2023-05-05T01:47:44.143Z,85.71
2023-05-05T01:48:44.123Z,85.55
2023-05-05T01:49:44.079Z,88.83
2023-05-05T01:50:44.091Z,86.08
2023-05-05T01:51:44.073Z,90.29
2023-05-05T01:52:44.080Z,85.24
2023-05-05T01:53:44.046Z,83.86
2023-05-05T01:54:44.066Z,87.48
2023-05-05T01:55:44.084Z,85.27
2023-05-05T01:56:44.052Z,84.47
2023-05-05T01:57:44.069Z,86.77
2023-05-05T01:58:44.047Z,89.85
2023-05-05T01:59:44.049Z,87.20
2023-05-05T02:00:44.117Z,87.32
2023-05-05T02:01:44.090Z,88.50
2023-05-05T02:02:44.144Z,88.94
2023-05-05T02:03:44.073Z,87.68
2023-05-05T02:04:44.052Z,86.40
2023-05-05T02:05:44.049Z,88.83
2023-05-05T02:06:44.047Z,85.14
2023-05-05T02:07:44.052Z,87.38
2023-05-05T02:08:44.016Z,84.16
2023-05-05T02:09:44.674Z,84.51
2023-05-05T02:10:44.059Z,84.37
2023-05-05T02:11:44.023Z,87.22
2023-05-05T02:12:44.070Z,88.90
2023-05-05T02:13:44.101Z,84.01
2023-05-05T02:14:44.050Z,84.83
2023-05-05T02:15:44.104Z,86.11
2023-05-05T02:16:44.022Z,86.69
2023-05-05T02:17:44.084Z,87.92
2023-05-05T02:18:44.079Z,86.62
2023-05-05T02:19:44.021Z,85.89
2023-05-05T02:20:44.080Z,86.05
2023-05-05T02:21:44.053Z,86.50
2023-05-05T02:22:44.049Z,87.73
2023-05-05T02:23:44.057Z,85.79
2023-05-05T02:24:44.022Z,85.07
2023-05-05T02:25:44.032Z,85.21
2023-05-05T02:26:44.059Z,87.83
2023-05-05T02:27:44.061Z,86.35
2023-05-05T02:28:44.019Z,86.02
2023-05-05T02:29:44.048Z,82.18
2023-05-05T02:30:44.069Z,86.28
2023-05-05T02:31:44.166Z,83.89
2023-05-05T02:32:44.056Z,86.40
2023-05-05T02:33:44.022Z,85.49
2023-05-05T02:34:44.031Z,86.61
2023-05-05T02:35:44.056Z,85.93
2023-05-05T02:36:44.013Z,85.54
2023-05-05T02:37:44.032Z,85.54
2023-05-05T02:38:44.040Z,84.28
2023-05-05T02:39:44.003Z,87.61
2023-05-05T02:40:44.185Z,83.33
2023-05-05T02:41:43.986Z,83.64
2023-05-05T02:42:44.042Z,82.29
2023-05-05T02:43:43.987Z,87.08
2023-05-05T02:44:43.985Z,82.74
2023-05-05T02:45:44.011Z,86.12
2023-05-05T02:46:44.017Z,86.05
2023-05-05T02:47:43.988Z,83.91
2023-05-05T02:48:43.962Z,85.23
2023-05-05T02:49:43.999Z,84.33
2023-05-05T02:50:44.009Z,83.77
2023-05-05T02:51:43.950Z,86.20
2023-05-05T02:52:43.987Z,85.05
2023-05-05T02:53:43.968Z,86.07
2023-05-05T02:54:43.954Z,86.33
2023-05-05T02:55:43.972Z,85.25
2023-05-05T02:56:43.947Z,84.86
2023-05-05T02:57:44.002Z,85.18
2023-05-05T02:58:43.980Z,86.53
2023-05-05T02:59:43.989Z,83.34
2023-05-05T03:00:43.947Z,84.30
2023-05-05T03:01:43.969Z,82.38
2023-05-05T03:02:44.048Z,85.61
2023-05-05T03:03:44.088Z,83.27
2023-05-05T03:04:43.957Z,85.15
2023-05-05T03:05:43.948Z,84.06
2023-05-05T03:06:43.971Z,84.51
2023-05-05T03:07:43.977Z,84.36
2023-05-05T03:08:43.959Z,83.20
2023-05-05T03:09:43.933Z,85.66
2023-05-05T03:10:43.948Z,81.71
2023-05-05T03:11:43.946Z,86.34
2023-05-05T03:12:43.948Z,83.98
2023-05-05T03:13:43.987Z,85.81
2023-05-05T03:14:43.932Z,82.19
2023-05-05T03:15:43.925Z,81.65
2023-05-05T03:16:44.115Z,84.51
2023-05-05T03:17:44.017Z,85.81
2023-05-05T03:18:43.924Z,83.43
2023-05-05T03:19:43.932Z,85.08
2023-05-05T03:20:43.973Z,82.38
2023-05-05T03:21:43.931Z,83.08
2023-05-05T03:22:43.959Z,82.18
2023-05-05T03:23:43.928Z,83.28
2023-05-05T03:24:43.953Z,82.28
2023-05-05T03:25:43.920Z,82.19
2023-05-05T03:26:43.933Z,85.68
2023-05-05T03:27:43.957Z,80.99
2023-05-05T03:28:43.906Z,81.93
2023-05-05T03:29:43.936Z,83.85
2023-05-05T03:30:43.911Z,81.29
2023-05-05T03:31:44.000Z,83.37
2023-05-05T03:32:43.957Z,81.91
2023-05-05T03:33:43.952Z,80.28
2023-05-05T03:34:43.920Z,82.40
2023-05-05T03:35:43.947Z,81.07
2023-05-05T03:36:43.948Z,80.16
2023-05-05T03:37:43.947Z,83.08
2023-05-05T03:38:43.945Z,81.08
2023-05-05T03:39:43.947Z,80.54
2023-05-05T03:40:44.761Z,80.54
2023-05-05T03:41:43.985Z,79.71
2023-05-05T03:42:43.970Z,82.27
2023-05-05T03:43:43.938Z,78.62
2023-05-05T03:44:43.951Z,79.14
2023-05-05T03:45:43.983Z,81.14
2023-05-05T03:46:43.971Z,81.63
2023-05-05T03:47:44.043Z,82.14
2023-05-05T03:48:43.951Z,78.53
2023-05-05T03:49:43.954Z,81.35
2023-05-05T03:50:43.964Z,81.77
2023-05-05T03:51:44.002Z,81.11
2023-05-05T03:52:44.035Z,82.00
2023-05-05T03:53:44.012Z,80.05
2023-05-05T03:54:44.041Z,82.67
2023-05-05T03:55:44.024Z,78.11
2023-05-05T03:56:44.044Z,79.73
2023-05-05T03:57:44.042Z,78.51
2023-05-05T03:58:44.044Z,80.10
2023-05-05T03:59:44.043Z,80.57
2023-05-05T04:00:44.045Z,81.19
2023-05-05T04:01:44.070Z,79.19
2023-05-05T04:02:44.155Z,82.30
2023-05-05T04:03:44.147Z,79.06
2023-05-05T04:04:44.056Z,80.49
2023-05-05T04:05:44.035Z,80.92
2023-05-05T04:06:44.085Z,77.48
2023-05-05T04:07:44.135Z,81.22
2023-05-05T04:08:44.052Z,79.84
2023-05-05T04:09:44.066Z,80.55
2023-05-05T04:10:44.051Z,81.97
2023-05-05T04:11:44.058Z,80.45
2023-05-05T04:12:44.118Z,76.91
2023-05-05T04:13:44.077Z,79.94
2023-05-05T04:14:44.076Z,80.38
2023-05-05T04:15:44.110Z,80.81
2023-05-05T04:16:44.159Z,80.18
2023-05-05T04:17:44.262Z,81.00
2023-05-05T04:18:44.165Z,80.98
2023-05-05T04:19:44.167Z,79.49
2023-05-05T04:20:44.176Z,77.88
2023-05-05T04:21:44.181Z,77.75
2023-05-05T04:22:44.253Z,79.58
2023-05-05T04:23:44.200Z,80.94
2023-05-05T04:24:44.226Z,81.21
2023-05-05T04:25:44.244Z,79.66
2023-05-05T04:26:44.310Z,79.89
2023-05-05T04:27:44.289Z,80.47
2023-05-05T04:28:44.281Z,79.80
2023-05-05T04:29:44.310Z,79.41
2023-05-05T04:30:44.303Z,81.03
2023-05-05T04:31:44.341Z,77.74
2023-05-05T04:32:44.370Z,81.56
2023-05-05T04:33:44.330Z,78.94
2023-05-05T04:34:44.334Z,80.39
2023-05-05T04:35:44.342Z,79.41
2023-05-05T04:36:44.353Z,76.64
2023-05-05T04:37:44.397Z,80.39
2023-05-05T04:38:44.393Z,79.92
2023-05-05T04:39:44.355Z,79.64
2023-05-05T04:40:44.359Z,79.60
2023-05-05T04:41:44.362Z,77.12
2023-05-05T04:42:44.380Z,75.97
2023-05-05T04:43:44.370Z,79.81
2023-05-05T04:44:44.371Z,78.31
2023-05-05T04:45:44.378Z,75.34
2023-05-05T04:46:44.393Z,78.26
2023-05-05T04:47:44.388Z,75.36
2023-05-05T04:48:44.361Z,75.61
2023-05-05T04:49:44.363Z,76.81
2023-05-05T04:50:44.359Z,78.04
2023-05-05T04:51:44.343Z,77.14
2023-05-05T04:52:44.341Z,77.33
2023-05-05T04:53:44.339Z,78.10
2023-05-05T04:54:44.367Z,74.21
2023-05-05T04:55:44.369Z,74.86
2023-05-05T04:56:44.407Z,75.52
2023-05-05T04:57:44.394Z,79.53
2023-05-05T04:58:44.406Z,76.78
2023-05-05T04:59:44.441Z,76.81
2023-05-05T05:00:44.431Z,75.27
2023-05-05T05:01:44.440Z,77.46
2023-05-05T05:02:44.517Z,75.13
2023-05-05T05:03:44.514Z,76.86
2023-05-05T05:04:44.429Z,77.36
2023-05-05T05:05:44.443Z,74.10
2023-05-05T05:06:44.432Z,74.46
2023-05-05T05:07:44.449Z,72.97
2023-05-05T05:08:44.450Z,74.95
2023-05-05T05:09:44.430Z,75.20
2023-05-05T05:10:44.444Z,72.21
2023-05-05T05:11:44.467Z,74.56
2023-05-05T05:12:44.546Z,76.73
2023-05-05T05:13:44.498Z,72.28
2023-05-05T05:14:44.520Z,72.38
2023-05-05T05:15:44.496Z,76.48
2023-05-05T05:16:44.556Z,73.16
2023-05-05T05:17:44.544Z,75.10
2023-05-05T05:18:44.516Z,75.47
2023-05-05T05:19:44.566Z,74.02
2023-05-05T05:20:44.560Z,72.16
2023-05-05T05:21:44.552Z,76.31
2023-05-05T05:22:44.562Z,71.23
2023-05-05T05:23:44.559Z,72.27
2023-05-05T05:24:44.654Z,73.86
2023-05-05T05:25:44.580Z,72.97
2023-05-05T05:26:44.556Z,76.01
2023-05-05T05:27:45.538Z,73.78
2023-05-05T05:28:44.557Z,76.53
2023-05-05T05:29:44.541Z,77.48
2023-05-05T05:30:44.546Z,73.78
2023-05-05T05:31:44.639Z,74.30
2023-05-05T05:32:44.565Z,76.11
2023-05-05T05:33:44.511Z,76.30
2023-05-05T05:34:44.499Z,73.64
2023-05-05T05:35:44.560Z,74.82
2023-05-05T05:36:44.602Z,82.62
2023-05-05T05:37:44.475Z,82.78
2023-05-05T05:38:44.596Z,82.79
2023-05-05T05:39:44.515Z,83.08
2023-05-05T05:40:44.459Z,91.26
2023-05-05T05:41:44.482Z,87.60
2023-05-05T05:42:44.449Z,89.43
2023-05-05T05:43:44.447Z,91.50
2023-05-05T05:44:44.449Z,94.76
2023-05-05T05:45:44.519Z,108.09
2023-05-05T05:46:44.473Z,109.02
2023-05-05T05:47:44.491Z,114.84
2023-05-05T05:48:44.412Z,117.14
2023-05-05T05:49:44.403Z,117.95
2023-05-05T05:50:44.408Z,122.98
2023-05-05T05:51:44.377Z,122.44
2023-05-05T05:52:44.367Z,124.21
2023-05-05T05:53:44.375Z,126.40
2023-05-05T05:54:44.386Z,126.29
2023-05-05T05:55:44.361Z,126.99
2023-05-05T05:56:44.357Z,128.97
2023-05-05T05:57:44.342Z,132.51
2023-05-05T05:58:44.344Z,129.11
2023-05-05T05:59:44.329Z,130.74
2023-05-05T06:00:44.329Z,131.84
2023-05-05T06:01:44.352Z,131.84
2023-05-05T06:02:44.361Z,131.46
2023-05-05T06:03:44.361Z,130.41
2023-05-05T06:04:44.316Z,132.32
2023-05-05T06:05:44.288Z,130.32
2023-05-05T06:06:44.721Z,133.16
2023-05-05T06:07:44.325Z,132.71
2023-05-05T06:08:44.731Z,135.07
2023-05-05T06:09:44.349Z,132.36
2023-05-05T06:10:44.381Z,136.86
2023-05-05T06:11:44.467Z,133.31
2023-05-05T06:12:44.512Z,136.51
2023-05-05T06:13:44.534Z,133.40
2023-05-05T06:14:44.556Z,133.07
2023-05-05T06:15:44.639Z,134.27
2023-05-05T06:16:44.746Z,136.52
2023-05-05T06:17:44.754Z,136.50
2023-05-05T06:18:44.790Z,135.96
2023-05-05T06:19:44.818Z,134.07
2023-05-05T06:20:44.833Z,132.45
2023-05-05T06:21:44.854Z,133.07
2023-05-05T06:22:44.909Z,135.24
2023-05-05T06:23:44.892Z,134.97
2023-05-05T06:24:44.935Z,135.03
2023-05-05T06:25:44.928Z,135.96
2023-05-05T06:26:44.964Z,132.64
2023-05-05T06:27:45.744Z,135.22
2023-05-05T06:28:45.275Z,135.87
2023-05-05T06:29:45.148Z,134.56
2023-05-05T06:30:45.130Z,136.65
2023-05-05T06:31:45.207Z,134.60
2023-05-05T06:32:45.282Z,135.06
2023-05-05T06:33:45.221Z,135.49
2023-05-05T06:34:45.266Z,136.26
2023-05-05T06:35:46.241Z,138.22
2023-05-05T06:36:45.369Z,135.39
2023-05-05T06:37:45.436Z,136.12
2023-05-05T06:38:45.740Z,146.85
2023-05-05T06:39:45.499Z,146.80
2023-05-05T06:40:45.592Z,145.74
2023-05-05T06:41:45.629Z,153.15
2023-05-05T06:42:45.648Z,154.48
2023-05-05T06:43:45.699Z,150.25
2023-05-05T06:44:45.762Z,156.41
2023-05-05T06:45:45.784Z,160.49
2023-05-05T06:46:45.866Z,161.06
2023-05-05T06:47:45.848Z,161.28
2023-05-05T06:48:45.858Z,162.06
2023-05-05T06:49:45.921Z,160.89
2023-05-05T06:50:45.856Z,150.74
2023-05-05T06:51:45.922Z,149.27
2023-05-05T06:52:45.890Z,137.13
2023-05-05T06:53:45.873Z,140.52
2023-05-05T06:54:45.867Z,138.26
2023-05-05T06:55:45.897Z,142.86
2023-05-05T06:56:45.925Z,142.15
2023-05-05T06:57:45.917Z,139.02
2023-05-05T06:58:45.957Z,114.10
2023-05-05T06:59:45.952Z,90.99
2023-05-05T07:00:46.005Z,69.02
2023-05-05T07:01:46.005Z,48.67
2023-05-05T07:02:46.047Z,58.57
2023-05-05T07:03:46.093Z,73.44
2023-05-05T07:04:46.048Z,74.61
2023-05-05T07:05:46.072Z,78.16
2023-05-05T07:06:46.092Z,74.36
2023-05-05T07:07:46.235Z,81.67
2023-05-05T07:08:46.211Z,82.91
2023-05-05T07:09:46.274Z,89.65
2023-05-05T07:10:46.344Z,90.13
2023-05-05T07:11:46.469Z,95.59
2023-05-05T07:12:46.444Z,103.36
2023-05-05T07:13:46.549Z,108.34
2023-05-05T07:14:46.570Z,116.10
2023-05-05T07:15:46.729Z,121.27
2023-05-05T07:16:46.704Z,125.82
2023-05-05T07:17:46.713Z,134.34
2023-05-05T07:18:46.720Z,144.94
2023-05-05T07:19:46.763Z,137.29
2023-05-05T07:20:46.825Z,130.87
2023-05-05T07:21:46.860Z,140.04
2023-05-05T07:22:46.894Z,137.38
2023-05-05T07:23:47.035Z,136.41
2023-05-05T07:24:47.344Z,89.44
2023-05-05T07:25:47.017Z,81.20
2023-05-05T07:26:47.062Z,87.26
2023-05-05T07:27:47.115Z,105.75
2023-05-05T07:28:47.307Z,107.49
2023-05-05T07:29:47.208Z,107.74
2023-05-05T07:30:47.217Z,113.35
2023-05-05T07:31:47.304Z,117.22
2023-05-05T07:32:47.288Z,111.93
2023-05-05T07:33:47.842Z,68.26
2023-05-05T07:34:47.340Z,37.88
2023-05-05T07:35:47.361Z,25.00
2023-05-05T07:36:47.389Z,25.89
2023-05-05T07:37:47.621Z,25.00
2023-05-05T07:38:47.506Z,27.85
2023-05-05T07:39:47.645Z,23.70
2023-05-05T07:40:47.553Z,27.33
2023-05-05T07:41:47.615Z,25.00
2023-05-05T07:42:47.639Z,25.00
2023-05-05T07:43:47.768Z,23.84
2023-05-05T07:44:47.770Z,28.97
2023-05-05T07:45:47.867Z,31.60
2023-05-05T07:46:47.951Z,32.23
2023-05-05T07:47:48.014Z,25.08
2023-05-05T07:48:47.956Z,28.43
2023-05-05T07:49:47.947Z,25.00
2023-05-05T07:50:48.031Z,25.00
2023-05-05T07:51:48.067Z,25.44
2023-05-05T07:52:51.786Z,28.49
2023-05-05T07:53:49.074Z,28.54
2023-05-05T07:54:48.067Z,22.87
2023-05-05T07:55:48.034Z,20.69
2023-05-05T07:56:48.168Z,15.93
2023-05-05T07:57:48.019Z,12.29
2023-05-05T07:58:48.027Z,27.08
2023-05-05T07:59:48.012Z,22.17
2023-05-05T08:00:48.053Z,27.20
2023-05-05T08:01:48.338Z,22.30
2023-05-05T08:02:48.163Z,24.73
2023-05-05T08:03:48.101Z,25.91
2023-05-05T08:04:48.023Z,26.24
2023-05-05T08:05:49.409Z,28.28
2023-05-05T08:06:47.961Z,26.68
2023-05-05T08:07:47.994Z,26.48
2023-05-05T08:08:48.033Z,36.27
2023-05-05T08:09:47.939Z,53.28
2023-05-05T08:10:47.938Z,60.07
2023-05-05T08:11:48.078Z,67.21
2023-05-05T08:12:48.022Z,70.88
2023-05-05T08:13:47.896Z,78.25
2023-05-05T08:14:47.905Z,87.67
2023-05-05T08:15:47.971Z,85.58
2023-05-05T08:16:48.788Z,94.91
2023-05-05T08:17:48.324Z,99.79
2023-05-05T08:18:47.869Z,99.42
2023-05-05T08:19:47.873Z,107.21
2023-05-05T08:20:47.844Z,110.11
2023-05-05T08:21:47.871Z,116.88
2023-05-05T08:22:48.008Z,109.38
2023-05-05T08:23:47.857Z,94.14
2023-05-05T08:24:47.888Z,97.86
2023-05-05T08:25:47.886Z,90.39
2023-05-05T08:26:47.815Z,98.22
2023-05-05T08:27:47.983Z,109.11
2023-05-05T08:28:47.809Z,106.47
2023-05-05T08:29:47.824Z,110.68
2023-05-05T08:30:47.788Z,115.39
2023-05-05T08:31:47.865Z,119.81
2023-05-05T08:32:47.842Z,123.98
2023-05-05T08:33:47.781Z,122.84
2023-05-05T08:34:47.915Z,128.32
2023-05-05T08:35:47.772Z,124.47
2023-05-05T08:36:47.769Z,134.26
2023-05-05T08:37:47.875Z,134.60
2023-05-05T08:38:47.729Z,133.44
2023-05-05T08:39:47.725Z,137.16
2023-05-05T08:40:47.744Z,136.87
2023-05-05T08:41:47.780Z,135.01
2023-05-05T08:42:47.920Z,142.33
2023-05-05T08:43:47.894Z,144.67
2023-05-05T08:44:48.316Z,142.18
2023-05-05T08:45:47.936Z,146.23
2023-05-05T08:46:48.061Z,150.24
2023-05-05T08:47:48.123Z,153.59
2023-05-05T08:48:48.043Z,156.41
2023-05-05T08:49:48.083Z,161.47
2023-05-05T08:50:48.114Z,164.55
2023-05-05T08:51:48.107Z,167.74
2023-05-05T08:52:49.929Z,173.00
2023-05-05T08:53:48.117Z,178.43
2023-05-05T08:54:48.126Z,183.99
2023-05-05T08:55:48.120Z,189.09
2023-05-05T08:56:48.102Z,193.37
2023-05-05T08:57:48.127Z,197.23
2023-05-05T08:58:48.106Z,199.31
2023-05-05T08:59:48.246Z,203.83
2023-05-05T09:00:48.100Z,207.33
2023-05-05T09:01:48.062Z,210.78
2023-05-05T09:02:48.454Z,214.22
2023-05-05T09:03:48.063Z,216.41
2023-05-05T09:04:48.099Z,221.89
2023-05-05T09:05:48.047Z,225.11
2023-05-05T09:06:48.048Z,223.38
2023-05-05T09:07:48.034Z,220.47
2023-05-05T09:08:48.009Z,219.47
2023-05-05T09:09:48.002Z,220.82
2023-05-05T09:10:48.019Z,223.47
2023-05-05T09:11:47.982Z,208.81
2023-05-05T09:12:48.034Z,217.89
2023-05-05T09:13:48.019Z,223.40
2023-05-05T09:14:47.996Z,228.61
2023-05-05T09:15:47.969Z,228.34
2023-05-05T09:16:47.975Z,230.24
2023-05-05T09:17:48.013Z,237.04
2023-05-05T09:18:47.985Z,236.04
2023-05-05T09:19:47.930Z,233.22
2023-05-05T09:20:47.957Z,238.21
2023-05-05T09:21:47.930Z,243.43
2023-05-05T09:22:47.910Z,245.83
2023-05-05T09:23:47.919Z,247.05
2023-05-05T09:24:47.920Z,250.00
2023-05-05T09:25:47.913Z,249.10
2023-05-05T09:26:47.904Z,249.43
2023-05-05T09:27:47.913Z,248.34
2023-05-05T09:28:47.935Z,243.31
2023-05-05T09:29:47.867Z,229.05
2023-05-05T09:30:47.921Z,216.69
2023-05-05T09:31:47.939Z,204.09
2023-05-05T09:32:47.901Z,218.23
2023-05-05T09:33:47.955Z,216.98
2023-05-05T09:34:47.906Z,218.96
2023-05-05T09:35:47.821Z,218.56
2023-05-05T09:36:48.000Z,219.75
2023-05-05T09:37:47.913Z,222.25
2023-05-05T09:38:47.824Z,222.96
2023-05-05T09:39:47.868Z,220.65
2023-05-05T09:40:47.778Z,221.08
2023-05-05T09:41:47.818Z,218.15
2023-05-05T09:42:47.799Z,221.52
2023-05-05T09:43:47.801Z,217.45
2023-05-05T09:44:49.829Z,213.87
2023-05-05T09:45:47.902Z,208.71
2023-05-05T09:46:48.904Z,208.09
2023-05-05T09:47:48.138Z,207.32
2023-05-05T09:48:48.005Z,207.15
2023-05-05T09:49:48.003Z,205.55
2023-05-05T09:50:48.007Z,203.60
2023-05-05T09:51:48.066Z,197.21
2023-05-05T09:52:48.791Z,200.40
2023-05-05T09:53:47.975Z,201.28
2023-05-05T09:54:48.044Z,204.95
2023-05-05T09:55:47.989Z,204.72
2023-05-05T09:56:48.036Z,194.84
2023-05-05T09:57:48.027Z,191.28
2023-05-05T09:58:48.035Z,192.63
2023-05-05T09:59:48.007Z,188.13
2023-05-05T10:00:48.037Z,185.74
2023-05-05T10:01:48.038Z,184.57
2023-05-05T10:02:48.035Z,182.68
2023-05-05T10:03:48.029Z,180.97
2023-05-05T10:04:48.103Z,181.04
2023-05-05T10:05:48.051Z,182.55
2023-05-05T10:06:48.040Z,182.44
2023-05-05T10:07:48.075Z,179.20
2023-05-05T10:08:48.020Z,177.61
2023-05-05T10:09:48.091Z,170.52
2023-05-05T10:10:47.999Z,177.12
2023-05-05T10:11:48.006Z,169.31
2023-05-05T10:12:48.039Z,165.86
2023-05-05T10:13:48.007Z,161.82
2023-05-05T10:14:48.032Z,152.59
2023-05-05T10:15:48.131Z,153.21
2023-05-05T10:16:48.012Z,153.64
2023-05-05T10:18:05.108Z,159.37
2023-05-05T10:18:49.006Z,159.70
2023-05-05T10:19:48.075Z,160.67
2023-05-05T10:20:48.000Z,151.41
2023-05-05T10:21:47.983Z,162.39
2023-05-05T10:22:47.992Z,155.34
2023-05-05T10:23:48.145Z,135.42
2023-05-05T10:24:47.973Z,141.55
2023-05-05T10:25:48.002Z,153.99
2023-05-05T10:26:48.050Z,154.42
2023-05-05T10:27:48.329Z,124.73
2023-05-05T10:28:48.185Z,138.02
2023-05-05T10:29:48.199Z,122.97
2023-05-05T10:30:48.261Z,128.56
2023-05-05T10:31:48.304Z,132.23
2023-05-05T10:32:59.357Z,122.54
2023-05-05T10:33:49.389Z,109.06
2023-05-05T10:34:48.336Z,115.96
2023-05-05T10:35:48.521Z,121.24
2023-05-05T10:36:48.395Z,100.30
2023-05-05T10:37:48.495Z,90.98
2023-05-05T10:38:48.414Z,95.18
2023-05-05T10:39:48.457Z,102.33
2023-05-05T10:40:48.489Z,106.36
2023-05-05T10:41:48.538Z,36.48
2023-05-05T10:42:48.868Z,41.10
2023-05-05T10:43:48.599Z,56.50
2023-05-05T10:44:48.874Z,85.46
2023-05-05T10:45:48.746Z,101.17
2023-05-05T10:46:48.723Z,104.08
2023-05-05T10:47:48.850Z,122.69
2023-05-05T10:48:48.849Z,130.78
2023-05-05T10:49:49.382Z,75.70
2023-05-05T10:50:48.873Z,89.69
2023-05-05T10:51:48.887Z,74.77
2023-05-05T10:52:48.947Z,84.94
2023-05-05T10:53:49.048Z,102.47
2023-05-05T10:54:49.044Z,112.15
2023-05-05T10:55:49.051Z,64.98
2023-05-05T10:56:49.182Z,0.00
2023-05-05T10:57:49.200Z,0.00
2023-05-05T10:58:59.806Z,0.00
2023-05-05T10:59:50.283Z,0.20
2023-05-05T11:00:49.212Z,2.90
2023-05-05T11:01:49.176Z,0.00
2023-05-05T11:02:49.200Z,8.98
2023-05-05T11:03:49.236Z,0.00
2023-05-05T11:04:49.177Z,0.00
2023-05-05T11:05:49.161Z,0.00
2023-05-05T11:06:49.821Z,0.00
2023-05-05T11:07:49.147Z,0.00
2023-05-05T11:08:49.140Z,24.30
2023-05-05T11:09:49.171Z,43.01
2023-05-05T11:10:49.327Z,62.37
2023-05-05T11:11:49.168Z,26.02
2023-05-05T11:12:49.192Z,34.06
2023-05-05T11:13:49.221Z,36.41
2023-05-05T11:14:49.292Z,38.60
2023-05-05T11:15:49.307Z,45.11
2023-05-05T11:16:49.270Z,49.05
2023-05-05T11:17:49.309Z,65.04
2023-05-05T11:18:49.291Z,83.41
2023-05-05T11:19:49.290Z,96.37
2023-05-05T11:20:49.298Z,101.89
2023-05-05T11:21:49.335Z,110.90
2023-05-05T11:22:49.354Z,119.40
2023-05-05T11:23:49.913Z,127.74
2023-05-05T11:24:49.416Z,132.14
2023-05-05T11:25:49.439Z,133.30
2023-05-05T11:26:49.517Z,141.19
2023-05-05T11:27:49.541Z,141.84
2023-05-05T11:28:49.561Z,143.81
2023-05-05T11:29:51.509Z,145.84
2023-05-05T11:30:49.677Z,146.24
2023-05-05T11:31:49.716Z,149.82
2023-05-05T11:32:49.849Z,151.81
2023-05-05T11:33:49.838Z,157.65
2023-05-05T11:34:49.871Z,160.49
2023-05-05T11:35:49.913Z,159.79
2023-05-05T11:36:50.012Z,161.17
2023-05-05T11:37:50.045Z,161.85
2023-05-05T11:38:50.146Z,160.99
2023-05-05T11:39:50.173Z,166.36
2023-05-05T11:40:50.225Z,169.05
2023-05-05T11:41:50.361Z,170.47
2023-05-05T11:42:50.353Z,170.45
2023-05-05T11:43:50.418Z,170.43
2023-05-05T11:44:50.446Z,171.58
2023-05-05T11:45:50.540Z,175.08
2023-05-05T11:46:50.500Z,175.40
2023-05-05T11:47:50.563Z,177.10
2023-05-05T11:48:50.858Z,176.68
2023-05-05T11:49:50.564Z,174.60
2023-05-05T11:50:50.549Z,175.73
2023-05-05T11:51:50.569Z,182.29
2023-05-05T11:52:50.572Z,184.86
2023-05-05T11:53:50.587Z,182.08
2023-05-05T11:54:50.681Z,183.87
2023-05-05T11:55:50.789Z,185.15
2023-05-05T11:56:50.623Z,186.84
2023-05-05T11:57:50.633Z,188.32
2023-05-05T11:58:50.720Z,187.41
2023-05-05T11:59:50.683Z,187.76
2023-05-05T12:00:50.671Z,188.86
2023-05-05T12:01:50.658Z,189.13
2023-05-05T12:02:50.701Z,190.80
2023-05-05T12:03:50.824Z,190.63
2023-05-05T12:04:50.765Z,188.52
2023-05-05T12:05:50.656Z,190.94
2023-05-05T12:06:50.646Z,190.56
2023-05-05T12:07:50.674Z,192.24
2023-05-05T12:08:50.667Z,192.21
2023-05-05T12:09:50.696Z,193.25
2023-05-05T12:10:50.649Z,194.69
2023-05-05T12:11:50.667Z,194.06
2023-05-05T12:12:51.290Z,194.44
2023-05-05T12:13:50.679Z,194.87
2023-05-05T12:14:50.664Z,196.24
2023-05-05T12:15:50.668Z,195.96
2023-05-05T12:16:50.686Z,196.92
2023-05-05T12:17:50.758Z,196.15
2023-05-05T12:18:50.680Z,195.48
2023-05-05T12:19:50.648Z,196.19
2023-05-05T12:20:50.719Z,195.53
2023-05-05T12:21:50.667Z,196.85
2023-05-05T12:22:50.640Z,197.64
2023-05-05T12:23:50.639Z,199.96
2023-05-05T12:24:51.901Z,200.37
2023-05-05T12:25:50.723Z,200.18
2023-05-05T12:26:50.683Z,199.80
2023-05-05T12:27:50.720Z,199.84
2023-05-05T12:28:50.700Z,198.48
2023-05-05T12:29:50.701Z,198.19
2023-05-05T12:30:51.649Z,199.92
2023-05-05T12:31:50.760Z,201.44
2023-05-05T12:32:50.744Z,198.64
2023-05-05T12:33:50.714Z,198.23
2023-05-05T12:34:50.703Z,198.06
2023-05-05T12:35:50.717Z,196.67
2023-05-05T12:36:50.785Z,199.74
2023-05-05T12:37:50.765Z,196.55
2023-05-05T12:38:50.747Z,197.09
2023-05-05T12:39:50.786Z,194.52
2023-05-05T12:40:50.742Z,195.48
2023-05-05T12:41:50.736Z,195.51
2023-05-05T12:42:50.756Z,191.98